createdAt,value
2023-05-02T00:00:50.613Z,14.68
2023-05-02T00:03:17.238Z,14.67
2023-05-02T00:05:44.241Z,14.60
2023-05-02T00:08:11.914Z,14.62
2023-05-02T00:10:38.438Z,14.58
2023-05-02T00:13:04.863Z,14.54
2023-05-02T00:15:31.275Z,14.54
2023-05-02T00:17:57.712Z,14.48
2023-05-02T00:20:24.335Z,14.46
2023-05-02T00:22:50.786Z,14.42
2023-05-02T00:25:17.210Z,14.42
2023-05-02T00:27:46.421Z,14.33
2023-05-02T00:30:13.606Z,14.31
2023-05-02T00:32:40.428Z,14.22
2023-05-02T00:35:07.525Z,14.29
2023-05-02T00:37:33.963Z,14.25
2023-05-02T00:40:00.708Z,14.19
2023-05-02T00:42:31.391Z,14.17
2023-05-02T00:44:57.878Z,14.15
2023-05-02T00:47:24.433Z,14.15
2023-05-02T00:49:50.979Z,14.08
2023-05-02T00:52:17.465Z,14.09
2023-05-02T00:54:44.125Z,14.10
2023-05-02T00:57:10.767Z,14.10
2023-05-02T00:59:37.666Z,14.07
2023-05-02T01:02:28.038Z,13.99
2023-05-02T01:05:26.218Z,13.95
2023-05-02T01:08:19.329Z,13.91
2023-05-02T01:10:53.017Z,13.79
2023-05-02T01:13:24.201Z,13.92
2023-05-02T01:15:53.357Z,13.87
2023-05-02T01:18:30.409Z,13.82
2023-05-02T01:21:04.569Z,13.80
2023-05-02T01:23:41.029Z,13.77
2023-05-02T01:26:16.858Z,13.74
2023-05-02T01:29:01.769Z,13.70
2023-05-02T01:31:36.297Z,13.75
2023-05-02T01:34:05.646Z,13.63
2023-05-02T01:36:34.145Z,13.68
2023-05-02T01:39:02.301Z,13.53
2023-05-02T01:41:31.420Z,13.54
2023-05-02T01:43:59.628Z,13.56
2023-05-02T01:46:30.506Z,13.46
2023-05-02T01:48:59.364Z,13.43
2023-05-02T01:51:31.758Z,13.43
2023-05-02T01:54:08.935Z,13.36
2023-05-02T01:56:38.337Z,13.39
2023-05-02T01:59:10.978Z,13.30
2023-05-02T02:01:39.165Z,13.36
2023-05-02T02:04:08.933Z,13.21
2023-05-02T02:06:35.908Z,13.33
2023-05-02T02:09:03.635Z,13.26
2023-05-02T02:11:36.538Z,13.24
2023-05-02T02:14:25.550Z,13.31
2023-05-02T02:16:56.141Z,13.17
2023-05-02T02:19:23.064Z,13.19
2023-05-02T02:21:51.258Z,13.16
2023-05-02T02:24:20.962Z,13.07
2023-05-02T02:26:47.381Z,13.04
2023-05-02T02:29:14.002Z,13.01
2023-05-02T02:31:40.491Z,13.04
2023-05-02T02:34:07.422Z,12.92
2023-05-02T02:36:36.185Z,13.14
2023-05-02T02:39:16.490Z,13.07
2023-05-02T02:42:09.770Z,12.96
2023-05-02T02:45:01.568Z,12.88
2023-05-02T02:47:40.234Z,12.91
2023-05-02T02:50:16.520Z,12.93
2023-05-02T02:52:52.194Z,12.86
2023-05-02T02:55:40.590Z,12.88
2023-05-02T02:58:20.042Z,12.82
2023-05-02T03:00:47.330Z,12.74
2023-05-02T03:03:17.727Z,12.75
2023-05-02T03:05:44.752Z,12.78
2023-05-02T03:08:11.726Z,12.69
2023-05-02T03:10:38.624Z,12.71
2023-05-02T03:13:05.028Z,12.64
2023-05-02T03:16:18.946Z,12.68
2023-05-02T03:18:45.926Z,12.63
2023-05-02T03:21:12.601Z,12.69
2023-05-02T03:23:39.464Z,12.64
2023-05-02T03:26:06.188Z,12.64
2023-05-02T03:28:33.581Z,12.55
2023-05-02T03:31:00.456Z,12.54
2023-05-02T03:33:27.351Z,12.51
2023-05-02T03:35:53.824Z,12.52
2023-05-02T03:38:21.254Z,12.42
2023-05-02T03:40:49.429Z,12.34
2023-05-02T03:43:15.880Z,12.26
2023-05-02T03:45:42.562Z,12.18
2023-05-02T03:48:09.117Z,12.14
2023-05-02T03:50:36.415Z,12.15
2023-05-02T03:53:02.856Z,12.20
2023-05-02T03:55:43.465Z,12.15
2023-05-02T03:58:16.048Z,12.18
2023-05-02T04:00:43.095Z,12.19
2023-05-02T04:03:10.726Z,12.30
2023-05-02T04:05:40.966Z,12.23
2023-05-02T04:08:08.333Z,12.15
2023-05-02T04:10:34.868Z,12.17
2023-05-02T04:13:04.984Z,12.12
2023-05-02T04:15:33.447Z,12.11
2023-05-02T04:18:00.334Z,12.15
2023-05-02T04:20:27.104Z,12.09
2023-05-02T04:22:54.987Z,12.15
2023-05-02T04:25:21.759Z,12.16
2023-05-02T04:27:50.252Z,12.15
2023-05-02T04:30:19.715Z,12.19
2023-05-02T04:32:55.055Z,12.26
2023-05-02T04:35:22.801Z,12.30
2023-05-02T04:37:49.812Z,12.25
2023-05-02T04:40:17.362Z,12.16
2023-05-02T04:42:46.811Z,12.15
2023-05-02T04:45:19.675Z,12.10
2023-05-02T04:47:46.270Z,12.10
2023-05-02T04:50:12.792Z,12.14
2023-05-02T04:52:39.244Z,11.97
2023-05-02T04:55:06.424Z,12.03
2023-05-02T04:57:32.966Z,12.09
2023-05-02T05:00:01.084Z,12.14
2023-05-02T05:02:28.233Z,12.19
2023-05-02T05:04:56.605Z,12.13
2023-05-02T05:07:23.581Z,12.11
2023-05-02T05:09:53.444Z,12.10
2023-05-02T05:12:21.343Z,12.00
2023-05-02T05:14:48.216Z,12.01
2023-05-02T05:17:14.830Z,12.10
2023-05-02T05:19:41.633Z,12.26
2023-05-02T05:22:08.686Z,12.43
2023-05-02T05:24:35.099Z,12.58
2023-05-02T05:27:01.709Z,12.58
2023-05-02T05:29:28.151Z,12.52
2023-05-02T05:31:54.603Z,12.81
2023-05-02T05:34:21.403Z,13.13
2023-05-02T05:36:50.101Z,13.10
2023-05-02T05:39:17.789Z,13.37
2023-05-02T05:41:46.718Z,13.39
2023-05-02T05:44:13.493Z,13.47
2023-05-02T05:46:39.954Z,13.50
2023-05-02T05:49:08.927Z,13.90
2023-05-02T05:51:36.284Z,14.10
2023-05-02T05:54:02.734Z,14.36
2023-05-02T05:56:29.752Z,14.07
2023-05-02T05:59:08.467Z,13.71
2023-05-02T06:01:35.810Z,14.41
2023-05-02T06:04:03.158Z,14.51
2023-05-02T06:06:30.068Z,14.79
2023-05-02T06:08:56.759Z,14.74
2023-05-02T06:11:24.510Z,14.00
2023-05-02T06:13:52.063Z,14.35
2023-05-02T06:16:19.758Z,14.64
2023-05-02T06:18:46.990Z,14.41
2023-05-02T06:21:13.750Z,14.92
2023-05-02T06:23:41.062Z,15.40
2023-05-02T06:26:07.518Z,15.60
2023-05-02T06:28:33.983Z,15.57
2023-05-02T06:31:02.353Z,15.75
2023-05-02T06:33:29.808Z,15.77
2023-05-02T06:35:57.815Z,15.73
2023-05-02T06:38:25.401Z,15.59
2023-05-02T06:40:52.185Z,15.47
2023-05-02T06:43:19.174Z,14.72
2023-05-02T06:45:46.020Z,14.98
2023-05-02T06:48:12.555Z,14.42
2023-05-02T06:50:39.027Z,14.32
2023-05-02T06:53:06.083Z,14.50
2023-05-02T06:55:32.624Z,14.34
2023-05-02T06:57:59.365Z,14.37
2023-05-02T07:00:25.817Z,14.84
2023-05-02T07:02:52.321Z,14.97
2023-05-02T07:05:18.863Z,14.71
2023-05-02T07:07:45.468Z,14.40
2023-05-02T07:10:12.016Z,14.31
2023-05-02T07:12:39.489Z,14.25
2023-05-02T07:15:07.246Z,14.52
2023-05-02T07:17:34.137Z,14.55
2023-05-02T07:20:00.993Z,14.59
2023-05-02T07:22:27.684Z,14.61
2023-05-02T07:24:58.755Z,14.73
2023-05-02T07:27:25.546Z,14.59
2023-05-02T07:29:51.984Z,14.76
2023-05-02T07:32:21.640Z,14.42
2023-05-02T07:34:48.449Z,14.16
2023-05-02T07:37:14.915Z,14.33
2023-05-02T07:39:41.394Z,14.53
2023-05-02T07:42:07.850Z,14.44
2023-05-02T07:44:35.122Z,14.38
2023-05-02T07:47:01.578Z,14.59
2023-05-02T07:49:28.106Z,14.51
2023-05-02T07:51:54.516Z,14.47
2023-05-02T07:54:22.182Z,14.64
2023-05-02T07:56:49.062Z,14.52
2023-05-02T07:59:15.562Z,14.63
2023-05-02T08:01:42.542Z,14.72
2023-05-02T08:04:10.587Z,14.97
2023-05-02T08:06:37.957Z,15.22
2023-05-02T08:09:04.544Z,15.39
2023-05-02T08:11:30.945Z,15.23
2023-05-02T08:13:57.376Z,15.37
2023-05-02T08:16:23.865Z,15.39
2023-05-02T08:18:50.424Z,15.34
2023-05-02T08:21:16.821Z,15.47
2023-05-02T08:23:43.370Z,15.33
2023-05-02T08:26:09.790Z,15.00
2023-05-02T08:28:36.991Z,15.11
2023-05-02T08:31:03.756Z,14.82
2023-05-02T08:33:30.190Z,14.89
2023-05-02T08:35:56.641Z,14.93
2023-05-02T08:38:23.061Z,14.98
2023-05-02T08:40:49.518Z,15.31
2023-05-02T08:43:17.134Z,15.33
2023-05-02T08:45:45.214Z,15.18
2023-05-02T08:48:14.846Z,15.09
2023-05-02T08:50:44.429Z,15.10
2023-05-02T08:53:12.195Z,15.02
2023-05-02T08:55:40.565Z,15.37
2023-05-02T08:58:08.447Z,15.10
2023-05-02T09:00:42.118Z,15.11
2023-05-02T09:03:30.648Z,14.77
2023-05-02T09:06:20.566Z,15.03
2023-05-02T09:08:49.407Z,15.00
2023-05-02T09:11:16.933Z,15.02
2023-05-02T09:13:47.740Z,14.96
2023-05-02T09:16:22.636Z,14.98
2023-05-02T09:18:54.154Z,15.16
2023-05-02T09:21:22.841Z,15.13
2023-05-02T09:23:51.253Z,15.05
2023-05-02T09:26:33.780Z,15.11
2023-05-02T09:29:01.907Z,14.83
2023-05-02T09:31:53.883Z,14.83
2023-05-02T09:34:20.382Z,14.88
2023-05-02T09:36:54.450Z,14.91
2023-05-02T09:39:26.386Z,14.86
2023-05-02T09:41:54.120Z,14.76
2023-05-02T09:44:23.259Z,14.73
2023-05-02T09:46:54.864Z,14.79
2023-05-02T09:49:42.191Z,14.95
2023-05-02T09:52:16.910Z,15.06
2023-05-02T09:54:43.870Z,14.68
2023-05-02T09:57:11.066Z,14.92
2023-05-02T09:59:39.294Z,14.56
2023-05-02T10:02:07.407Z,14.39
2023-05-02T10:04:34.602Z,14.12
2023-05-02T10:07:03.399Z,14.08
2023-05-02T10:09:32.792Z,13.98
2023-05-02T10:12:05.020Z,13.80
2023-05-02T10:14:36.089Z,13.52
2023-05-02T10:17:13.079Z,13.38
2023-05-02T10:19:55.261Z,13.59
2023-05-02T10:22:22.456Z,13.30
2023-05-02T10:24:49.755Z,13.37
2023-05-02T10:27:16.410Z,13.09
2023-05-02T10:29:42.966Z,12.91
2023-05-02T10:32:10.824Z,12.96
2023-05-02T10:34:40.365Z,12.88
2023-05-02T10:37:06.939Z,12.96
2023-05-02T10:39:33.433Z,13.07
2023-05-02T10:42:02.247Z,13.23
2023-05-02T10:44:36.073Z,12.84
2023-05-02T10:47:20.055Z,12.84
2023-05-02T10:49:54.206Z,12.88
2023-05-02T10:52:31.730Z,12.70
2023-05-02T10:55:21.506Z,12.64
2023-05-02T10:57:57.001Z,12.69
2023-05-02T11:00:32.299Z,12.66
2023-05-02T11:02:59.247Z,12.58
2023-05-02T11:05:27.051Z,12.65
2023-05-02T11:08:15.214Z,12.47
2023-05-02T11:10:41.712Z,12.66
2023-05-02T11:13:08.176Z,12.61
2023-05-02T11:15:54.854Z,12.53
2023-05-02T11:18:21.304Z,12.38
2023-05-02T11:20:47.717Z,12.52
2023-05-02T11:23:14.378Z,12.50
2023-05-02T11:25:44.701Z,12.58
2023-05-02T11:28:39.273Z,12.55
2023-05-02T11:31:07.160Z,12.53
2023-05-02T11:33:33.797Z,12.50
2023-05-02T11:36:00.355Z,12.60
2023-05-02T11:38:36.442Z,12.77
2023-05-02T11:41:04.246Z,12.87
2023-05-02T11:43:32.408Z,12.84
2023-05-02T11:46:00.744Z,12.77
2023-05-02T11:48:27.794Z,12.90
2023-05-02T11:51:02.270Z,12.52
2023-05-02T11:53:29.786Z,12.72
2023-05-02T11:55:58.928Z,12.36
2023-05-02T11:58:29.688Z,12.70
2023-05-02T12:00:57.284Z,12.85
2023-05-02T12:03:33.816Z,12.83
2023-05-02T12:06:11.603Z,12.99
2023-05-02T12:08:42.379Z,12.83
2023-05-02T12:11:09.248Z,12.87
2023-05-02T12:13:44.147Z,12.83
2023-05-02T12:16:11.108Z,12.72
2023-05-02T12:18:37.969Z,13.05
2023-05-02T12:21:05.852Z,12.88
2023-05-02T12:23:32.862Z,12.83
2023-05-02T12:26:00.424Z,13.08
2023-05-02T12:28:27.508Z,13.19
2023-05-02T12:30:53.911Z,13.33
2023-05-02T12:33:20.737Z,13.17
2023-05-02T12:35:47.434Z,13.41
2023-05-02T12:38:20.371Z,13.01
2023-05-02T12:40:48.635Z,13.35
2023-05-02T12:43:15.061Z,13.52
2023-05-02T12:45:41.647Z,13.57
2023-05-02T12:48:28.565Z,13.29
2023-05-02T12:50:55.428Z,13.54
2023-05-02T12:53:42.035Z,13.86
2023-05-02T12:56:10.305Z,14.04
2023-05-02T12:58:45.764Z,14.14
2023-05-02T13:01:13.177Z,14.07
2023-05-02T13:03:40.457Z,14.20
2023-05-02T13:06:07.147Z,14.04
2023-05-02T13:08:34.489Z,14.08
2023-05-02T13:11:02.758Z,13.91
2023-05-02T13:13:30.061Z,13.82
2023-05-02T13:15:56.563Z,13.86
2023-05-02T13:18:23.248Z,14.12
2023-05-02T13:20:49.704Z,14.04
2023-05-02T13:23:16.855Z,13.73
2023-05-02T13:25:43.485Z,13.80
2023-05-02T13:28:09.920Z,13.95
2023-05-02T13:30:36.592Z,13.85
2023-05-02T13:33:03.149Z,13.92
2023-05-02T13:35:29.625Z,13.74
2023-05-02T13:37:56.069Z,14.25
2023-05-02T13:40:22.533Z,14.27
2023-05-02T13:42:48.995Z,14.21
2023-05-02T13:45:17.238Z,14.01
2023-05-02T13:47:43.695Z,13.97
2023-05-02T13:50:10.412Z,13.81
2023-05-02T13:52:36.852Z,13.84
2023-05-02T13:55:03.371Z,13.94
2023-05-02T13:57:29.792Z,13.86
2023-05-02T13:59:56.216Z,14.05
2023-05-02T14:02:22.893Z,14.04
2023-05-02T14:04:49.374Z,14.08
2023-05-02T14:07:15.800Z,13.95
2023-05-02T14:09:42.238Z,13.96
2023-05-02T14:12:08.650Z,13.97
2023-05-02T14:14:37.709Z,13.73
2023-05-02T14:17:05.321Z,13.75
2023-05-02T14:19:32.329Z,13.75
2023-05-02T14:21:58.858Z,13.77
2023-05-02T14:24:25.453Z,13.72
2023-05-02T14:26:52.120Z,13.45
2023-05-02T14:29:19.753Z,13.61
2023-05-02T14:31:46.601Z,13.32
2023-05-02T14:34:13.301Z,13.54
2023-05-02T14:36:39.835Z,13.55
2023-05-02T14:39:06.505Z,13.40
2023-05-02T14:41:33.031Z,13.33
2023-05-02T14:43:59.554Z,13.25
2023-05-02T14:46:26.158Z,13.14
2023-05-02T14:48:52.773Z,13.14
2023-05-02T14:51:19.459Z,13.26
2023-05-02T14:53:48.499Z,13.03
2023-05-02T14:56:17.193Z,13.30
2023-05-02T14:58:43.883Z,13.19
2023-05-02T15:01:18.504Z,13.30
2023-05-02T15:04:05.320Z,13.13
2023-05-02T15:06:33.132Z,12.64
2023-05-02T15:09:00.027Z,13.06
2023-05-02T15:11:26.970Z,13.06
2023-05-02T15:13:54.049Z,13.13
2023-05-02T15:16:21.724Z,13.31
2023-05-02T15:18:48.546Z,13.17
2023-05-02T15:21:15.179Z,13.34
2023-05-02T15:23:41.751Z,13.20
2023-05-02T15:26:08.293Z,13.30
2023-05-02T15:28:34.977Z,13.49
2023-05-02T15:31:01.552Z,13.45
2023-05-02T15:33:28.885Z,13.52
2023-05-02T15:35:58.484Z,13.25
2023-05-02T15:38:25.882Z,13.62
2023-05-02T15:41:01.463Z,13.63
2023-05-02T15:43:28.305Z,13.56
2023-05-02T15:45:57.061Z,13.50
2023-05-02T15:48:26.498Z,13.25
2023-05-02T15:50:53.199Z,13.42
2023-05-02T15:53:22.852Z,13.41
2023-05-02T15:55:51.108Z,13.68
2023-05-02T15:58:18.809Z,13.80
2023-05-02T16:00:46.993Z,13.73
2023-05-02T16:03:15.483Z,13.69
2023-05-02T16:05:42.298Z,13.77
2023-05-02T16:08:08.876Z,13.90
2023-05-02T16:10:36.583Z,13.75
2023-05-02T16:13:03.174Z,13.78
2023-05-02T16:15:30.351Z,13.85
2023-05-02T16:17:57.344Z,13.81
2023-05-02T16:20:23.953Z,13.61
2023-05-02T16:22:50.398Z,13.76
2023-05-02T16:25:17.363Z,13.48
2023-05-02T16:27:44.204Z,13.64
2023-05-02T16:30:11.141Z,13.73
2023-05-02T16:32:37.864Z,13.56
2023-05-02T16:35:07.220Z,13.75
2023-05-02T16:37:35.014Z,13.40
2023-05-02T16:40:02.057Z,13.57
2023-05-02T16:42:28.976Z,13.64
2023-05-02T16:44:56.388Z,13.52
2023-05-02T16:47:23.812Z,13.77
2023-05-02T16:49:54.755Z,13.57
2023-05-02T16:52:21.449Z,13.68
2023-05-02T16:54:48.096Z,13.72
2023-05-02T16:57:19.695Z,13.60
2023-05-02T16:59:51.139Z,13.50
2023-05-02T17:02:22.142Z,13.47
2023-05-02T17:04:49.949Z,13.52
2023-05-02T17:07:16.865Z,13.50
2023-05-02T17:09:44.486Z,13.57
2023-05-02T17:12:12.140Z,13.27
2023-05-02T17:14:42.375Z,13.32
2023-05-02T17:17:09.641Z,13.38
2023-05-02T17:19:36.674Z,13.55
2023-05-02T17:22:04.874Z,13.57
2023-05-02T17:24:31.416Z,13.52
2023-05-02T17:26:57.952Z,13.46
2023-05-02T17:29:25.588Z,13.55
2023-05-02T17:31:52.131Z,13.29
2023-05-02T17:34:18.577Z,13.48
2023-05-02T17:36:46.247Z,13.58
2023-05-02T17:39:13.488Z,13.58
2023-05-02T17:41:39.982Z,13.49
2023-05-02T17:44:06.420Z,13.38
2023-05-02T17:46:33.130Z,13.33
2023-05-02T17:49:00.706Z,13.31
2023-05-02T17:51:27.323Z,13.39
2023-05-02T17:53:53.842Z,13.22
2023-05-02T17:56:20.952Z,13.23
2023-05-02T17:58:47.402Z,13.25
2023-05-02T18:01:14.016Z,13.10
2023-05-02T18:03:41.760Z,13.13
2023-05-02T18:06:08.511Z,13.13
2023-05-02T18:08:35.067Z,13.12
2023-05-02T18:11:03.168Z,13.15
2023-05-02T18:13:29.847Z,13.12
2023-05-02T18:16:01.373Z,13.19
2023-05-02T18:18:27.871Z,13.14
2023-05-02T18:20:54.318Z,13.07
2023-05-02T18:23:20.899Z,13.08
2023-05-02T18:25:47.343Z,13.02
2023-05-02T18:28:13.759Z,13.07
2023-05-02T18:30:40.320Z,13.02
2023-05-02T18:33:07.556Z,13.04
2023-05-02T18:35:34.031Z,13.06
2023-05-02T18:38:00.450Z,13.01
2023-05-02T18:40:27.165Z,12.88
2023-05-02T18:42:53.576Z,12.89
2023-05-02T18:45:21.048Z,12.82
2023-05-02T18:47:47.583Z,12.79
2023-05-02T18:50:14.055Z,12.82
2023-05-02T18:52:40.489Z,12.63
2023-05-02T18:55:07.350Z,12.63
2023-05-02T18:57:33.972Z,12.69
2023-05-02T19:00:00.714Z,12.71
2023-05-02T19:02:27.481Z,12.59
2023-05-02T19:04:54.633Z,12.43
2023-05-02T19:07:21.053Z,12.25
2023-05-02T19:09:47.810Z,12.34
2023-05-02T19:12:14.238Z,12.26
2023-05-02T19:14:41.199Z,12.30
2023-05-02T19:17:07.661Z,12.18
2023-05-02T19:19:34.134Z,12.07
2023-05-02T19:22:00.555Z,12.04
2023-05-02T19:24:27.005Z,12.04
2023-05-02T19:26:53.664Z,12.06
2023-05-02T19:29:20.578Z,12.04
2023-05-02T19:31:47.075Z,12.07
2023-05-02T19:34:13.516Z,12.09
2023-05-02T19:36:39.924Z,12.04
2023-05-02T19:39:06.399Z,12.07
2023-05-02T19:41:32.840Z,12.09
2023-05-02T19:43:59.931Z,12.06
2023-05-02T19:46:26.881Z,12.00
2023-05-02T19:48:53.419Z,11.96
2023-05-02T19:51:25.683Z,11.85
2023-05-02T19:53:58.372Z,11.87
2023-05-02T19:56:26.254Z,11.82
2023-05-02T19:58:58.471Z,11.80
2023-05-02T20:01:31.296Z,11.76
2023-05-02T20:03:58.094Z,11.69
2023-05-02T20:06:24.619Z,11.69
2023-05-02T20:08:52.428Z,11.70
2023-05-02T20:11:18.832Z,11.63
2023-05-02T20:13:45.835Z,11.68
2023-05-02T20:16:13.576Z,11.65
2023-05-02T20:18:40.268Z,11.63
2023-05-02T20:21:06.705Z,11.58
2023-05-02T20:23:33.146Z,11.46
2023-05-02T20:25:59.561Z,11.45
2023-05-02T20:28:26.391Z,11.56
2023-05-02T20:30:52.823Z,11.47
2023-05-02T20:33:19.798Z,11.40
2023-05-02T20:35:53.296Z,11.30
2023-05-02T20:38:20.392Z,11.33
2023-05-02T20:40:46.815Z,11.41
2023-05-02T20:43:14.226Z,11.36
2023-05-02T20:45:40.791Z,11.31
2023-05-02T20:48:07.399Z,11.28
2023-05-02T20:50:33.863Z,11.27
2023-05-02T20:53:00.494Z,11.29
2023-05-02T20:55:27.538Z,11.19
2023-05-02T20:57:53.996Z,11.19
2023-05-02T21:00:22.392Z,11.04
2023-05-02T21:02:49.077Z,10.97
2023-05-02T21:05:15.700Z,11.01
2023-05-02T21:07:42.138Z,10.99
2023-05-02T21:10:09.304Z,10.92
2023-05-02T21:12:35.718Z,10.91
2023-05-02T21:15:02.353Z,10.84
2023-05-02T21:17:28.778Z,10.82
2023-05-02T21:19:56.034Z,10.78
2023-05-02T21:22:22.448Z,10.69
2023-05-02T21:24:50.167Z,10.81
2023-05-02T21:27:16.755Z,10.83
2023-05-02T21:29:43.264Z,10.76
2023-05-02T21:32:09.780Z,10.76
2023-05-02T21:34:36.377Z,10.75
2023-05-02T21:37:02.863Z,10.73
2023-05-02T21:39:29.292Z,10.72
2023-05-02T21:41:56.246Z,10.72
2023-05-02T21:44:22.701Z,10.67
2023-05-02T21:46:50.419Z,10.62
2023-05-02T21:49:16.968Z,10.68
2023-05-02T21:51:43.441Z,10.62
2023-05-02T21:54:09.826Z,10.61
2023-05-02T21:56:36.262Z,10.54
2023-05-02T21:59:02.876Z,10.54
2023-05-02T22:01:29.520Z,10.48
2023-05-02T22:03:56.545Z,10.34
2023-05-02T22:06:23.076Z,10.42
2023-05-02T22:08:49.661Z,10.44
2023-05-02T22:11:16.097Z,10.46
2023-05-02T22:13:42.490Z,10.40
2023-05-02T22:16:09.707Z,10.43
2023-05-02T22:18:36.214Z,10.40
2023-05-02T22:21:03.619Z,10.38
2023-05-02T22:23:30.945Z,10.32
2023-05-02T22:25:57.549Z,10.41
2023-05-02T22:28:23.989Z,10.36
2023-05-02T22:30:50.423Z,10.37
2023-05-02T22:33:16.829Z,10.35
2023-05-02T22:35:43.290Z,10.48
2023-05-02T22:38:14.476Z,10.36
2023-05-02T22:40:41.063Z,10.20
2023-05-02T22:43:08.112Z,10.30
2023-05-02T22:45:36.293Z,10.36
2023-05-02T22:48:02.947Z,10.46
2023-05-02T22:50:30.178Z,10.34
2023-05-02T22:52:57.138Z,10.38
2023-05-02T22:55:24.175Z,10.36
2023-05-02T22:57:50.939Z,10.45
2023-05-02T23:00:17.514Z,10.40
2023-05-02T23:02:44.551Z,10.23
2023-05-02T23:05:11.080Z,10.18
2023-05-02T23:07:37.770Z,10.18
2023-05-02T23:10:04.707Z,10.15
2023-05-02T23:12:31.337Z,10.17
2023-05-02T23:14:57.933Z,10.20
2023-05-02T23:17:24.462Z,10.24
2023-05-02T23:19:50.911Z,10.20
2023-05-02T23:22:17.452Z,10.16
2023-05-02T23:24:46.615Z,10.09
2023-05-02T23:27:13.063Z,10.14
2023-05-02T23:29:39.472Z,10.05
2023-05-02T23:32:08.008Z,9.95
2023-05-02T23:34:36.469Z,9.95
2023-05-02T23:37:03.168Z,9.98
2023-05-02T23:39:30.545Z,10.00
2023-05-02T23:41:57.042Z,9.99
2023-05-02T23:44:23.453Z,9.92
2023-05-02T23:46:50.409Z,9.90
2023-05-02T23:49:17.089Z,9.87
2023-05-02T23:51:43.512Z,9.86
2023-05-02T23:54:09.920Z,9.80
2023-05-02T23:56:36.357Z,9.71
2023-05-02T23:59:02.776Z,9.71
